Admiral — ZDFI5 — position and weather

sailwx.info

Track history (hours):
 
Tides and Currents Weather Stations Pressure Air Temp Water Temp Dewpoint Dewpoint Depression Visibility Wind Speed Wind Dir Waves Ship Positions

Admiral

Last reported at 2018-Jan-22 22:00 UTC. Time now 2018-Jan-22 22:30 UTC.
Position N 55°20' W 005°56'.

Length 168 m; draft 6.5 m.

Type: Ship (hazmat cat A). MMSI: 236175000.

Date/timePositionNaut miles runAvg speedWind from/ knotsBaromVisibWave heightAir tempDewpointWater temp
2018-Jan-22 22:00N 55°20' W 005°56'510.8
2018-Jan-22 21:30N 55°16' W 005°50'611.7
2018-Jan-22 21:00N 55°11' W 005°44'1613.1
2018-Jan-22 19:45N 54°58' W 005°28'314.0
2018-Jan-22 19:30N 54°55' W 005°25'713.7
2018-Jan-22 19:00N 54°49' W 005°20'714.3
2018-Jan-22 18:30N 54°43' W 005°13'714.5
2018-Jan-22 18:00N 54°36' W 005°10'714.1
2018-Jan-22 17:30N 54°29' W 005°08'713.7
2018-Jan-22 17:00N 54°22' W 005°06'713.2
2018-Jan-22 16:30N 54°15' W 005°06'14613.1
2018-Jan-22 05:22N 51°50' W 005°30'6 8.8
2018-Jan-22 04:44N 51°45' W 005°26'2 9.8
2018-Jan-22 04:31N 51°43' W 005°23'5 9.0
2018-Jan-22 04:00N 51°40' W 005°17'4 8.8
2018-Jan-22 03:30N 51°39' W 005°11'4 8.8
2018-Jan-22 03:01N 51°42' W 005°05'2 3.3
2018-Jan-22 02:29N 51°42' W 005°02'0 0.0
2018-Jan-22 01:59N 51°42' W 005°02'0 0.0
2018-Jan-22 01:30N 51°42' W 005°02'0 0.0
2018-Jan-22 01:00N 51°42' W 005°02'0 0.0
2018-Jan-22 00:30N 51°42' W 005°02'0 0.0
2018-Jan-21 23:55N 51°42' W 005°02'0 0.0
2018-Jan-21 23:25N 51°42' W 005°02'0 0.0
2018-Jan-21 22:55N 51°42' W 005°02'0 0.0
2018-Jan-21 22:26N 51°42' W 005°02'0 0.0
2018-Jan-21 21:56N 51°42' W 005°02'0 0.0
2018-Jan-21 21:26N 51°42' W 005°02'0 0.0
2018-Jan-21 20:57N 51°42' W 005°02'0 0.0
2018-Jan-21 20:27N 51°42' W 005°02'0 0.0
2018-Jan-21 19:57N 51°42' W 005°02'0 0.0
2018-Jan-21 19:28N 51°42' W 005°02'0 0.0
2018-Jan-21 18:58N 51°42' W 005°02'0 0.0
2018-Jan-21 18:28N 51°42' W 005°02'0 0.0
2018-Jan-21 17:59N 51°42' W 005°02'0 0.0
2018-Jan-21 17:29N 51°42' W 005°02'0 0.0
2018-Jan-21 16:59N 51°42' W 005°02'0 0.0
2018-Jan-21 16:30N 51°42' W 005°02'0 0.0
2018-Jan-21 16:00N 51°42' W 005°02'0 0.0
2018-Jan-21 15:30N 51°42' W 005°02'0 0.0
2018-Jan-21 14:55N 51°42' W 005°02'0 0.0
2018-Jan-21 14:25N 51°42' W 005°02'0 0.0
2018-Jan-21 13:55N 51°42' W 005°02'0 0.0
2018-Jan-21 13:26N 51°42' W 005°02'0 0.0
2018-Jan-21 12:56N 51°42' W 005°02'0 0.0
2018-Jan-21 12:26N 51°42' W 005°02'0 0.0
2018-Jan-21 11:45N 51°42' W 005°02'0 0.0
2018-Jan-21 11:27N 51°42' W 005°02'0 0.0
2018-Jan-21 10:57N 51°42' W 005°02'0 0.0
2018-Jan-21 10:28N 51°42' W 005°02'0 0.0
2018-Jan-21 09:58N 51°42' W 005°02'0 0.0
2018-Jan-21 09:28N 51°42' W 005°02'0 0.0
2018-Jan-21 08:59N 51°42' W 005°02'0 0.0
2018-Jan-21 08:29N 51°42' W 005°02'0 0.0
2018-Jan-21 07:59N 51°42' W 005°02'0 0.0
2018-Jan-21 07:30N 51°42' W 005°02'0 0.0
2018-Jan-21 07:00N 51°42' W 005°02'0 0.0
2018-Jan-21 06:30N 51°42' W 005°02'0 0.0
2018-Jan-21 05:55N 51°42' W 005°02'0 0.0
2018-Jan-21 05:25N 51°42' W 005°02'0 0.0
2018-Jan-21 04:56N 51°42' W 005°02'0 0.0
2018-Jan-21 04:26N 51°42' W 005°02'0 0.0
2018-Jan-21 03:56N 51°42' W 005°02'0 0.0
2018-Jan-21 03:27N 51°42' W 005°02'0 0.0
2018-Jan-21 02:57N 51°42' W 005°02'0 0.0
2018-Jan-21 02:27N 51°42' W 005°02'0 0.0
2018-Jan-21 01:58N 51°42' W 005°02'0 0.0
2018-Jan-21 01:28N 51°42' W 005°02'0 0.0
2018-Jan-21 00:58N 51°42' W 005°02'0 0.0
2018-Jan-21 00:29N 51°42' W 005°02'0 0.0
2018-Jan-20 23:59N 51°42' W 005°02'0 0.0
2018-Jan-20 23:29N 51°42' W 005°02'0 0.0
2018-Jan-20 23:00N 51°42' W 005°02'0 0.0
2018-Jan-20 22:30N 51°42' W 005°02'0 0.0
2018-Jan-20 22:00N 51°42' W 005°02'0 0.0
2018-Jan-20 21:30N 51°42' W 005°02'0 0.0
2018-Jan-20 20:49N 51°42' W 005°02'0 0.0
2018-Jan-20 20:25N 51°42' W 005°02'0 0.0
2018-Jan-20 19:56N 51°42' W 005°02'0 0.0
2018-Jan-20 19:26N 51°42' W 005°02'0 0.0
2018-Jan-20 18:56N 51°42' W 005°02'0 0.0
2018-Jan-20 18:27N 51°42' W 005°02'0 0.0
2018-Jan-20 17:57N 51°42' W 005°02'0 0.0
2018-Jan-20 17:27N 51°42' W 005°02'0 0.0
2018-Jan-20 16:58N 51°42' W 005°02'0 0.0
2018-Jan-20 16:28N 51°42' W 005°02'0 0.0
2018-Jan-20 15:58N 51°42' W 005°02'0 0.0
2018-Jan-20 15:29N 51°42' W 005°02'0 0.0
2018-Jan-20 14:59N 51°42' W 005°02'0 0.0
2018-Jan-20 14:29N 51°42' W 005°02'0 0.0
2018-Jan-20 14:00N 51°42' W 005°02'0 0.0
2018-Jan-20 13:30N 51°42' W 005°02'0 0.0
2018-Jan-20 13:00N 51°42' W 005°02'0 0.0
2018-Jan-20 12:31N 51°42' W 005°02'0 0.0
2018-Jan-20 11:55N 51°42' W 005°02'0 0.0
2018-Jan-20 11:25N 51°42' W 005°02'0 0.0
2018-Jan-20 10:56N 51°42' W 005°02'0 0.0
2018-Jan-20 10:26N 51°42' W 005°02'0 0.0
2018-Jan-20 09:56N 51°42' W 005°02'0 0.0
2018-Jan-20 09:27N 51°42' W 005°02'0 0.0
2018-Jan-20 08:57N 51°42' W 005°02'0 0.0
2018-Jan-20 08:27N 51°42' W 005°02'0 0.0
2018-Jan-20 07:58N 51°42' W 005°02'0 0.1
2018-Jan-20 07:30N 51°42' W 005°02'1 2.2
2018-Jan-20 07:00N 51°42' W 005°04'4 7.2
2018-Jan-20 06:30N 51°41' W 005°09'5 9.5
2018-Jan-20 06:00N 51°37' W 005°12'2 3.6
2018-Jan-20 05:30N 51°35' W 005°14'1 1.9
2018-Jan-20 05:00N 51°36' W 005°15'1 2.4
2018-Jan-20 04:30N 51°37' W 005°17'1 2.8
2018-Jan-20 03:59N 51°37' W 005°18'2 3.7
2018-Jan-20 03:30N 51°39' W 005°20'3 6.6
2018-Jan-20 03:00N 51°42' W 005°21'4 6.7
2018-Jan-20 02:28N 51°46' W 005°19'3 7.2
2018-Jan-20 02:00N 51°47' W 005°14'1 1.3
2018-Jan-20 01:30N 51°47' W 005°13'0 0.0
2018-Jan-20 00:55N 51°47' W 005°13'0 0.0
2018-Jan-19 21:40N 51°47' W 005°13'0 0.0
2018-Jan-19 15:43N 51°47' W 005°13'0 0.0
2018-Jan-19 14:32N 51°47' W 005°13'0 0.0
2018-Jan-19 14:15N 51°47' W 005°13'0 0.1
2018-Jan-19 13:57N 51°47' W 005°13'0 0.0
2018-Jan-19 13:15N 51°47' W 005°13'0 0.0
2018-Jan-19 12:34N 51°47' W 005°13'0 0.1
2018-Jan-19 12:28N 51°47' W 005°13'0 0.0
2018-Jan-19 11:58N 51°47' W 005°13'0 0.0
2018-Jan-19 11:17N 51°47' W 005°13'0 0.0
2018-Jan-19 10:53N 51°47' W 005°13'0 0.1
2018-Jan-19 10:23N 51°47' W 005°13'0 0.1
2018-Jan-19 09:59N 51°47' W 005°13'0 0.0
2018-Jan-19 07:55N 51°47' W 005°13'0 0.0
2018-Jan-19 07:25N 51°47' W 005°13'0 0.0
2018-Jan-19 06:02N 51°47' W 005°13'0 0.0
2018-Jan-19 01:59N 51°47' W 005°13'0 0.0
2018-Jan-19 01:29N 51°47' W 005°13'0 0.0
2018-Jan-19 00:36N 51°47' W 005°13'0 0.0
2018-Jan-19 00:30N 51°47' W 005°13'0 0.0
2018-Jan-19 00:00N 51°47' W 005°13'0 0.0
2018-Jan-18 23:30N 51°47' W 005°13'0 0.0
2018-Jan-18 22:55N 51°47' W 005°13'0 0.0
2018-Jan-18 22:25N 51°47' W 005°13'0 0.0
2018-Jan-18 21:55N 51°47' W 005°13'0 0.0
2018-Jan-18 21:26N 51°47' W 005°13'0 0.0
2018-Jan-18 20:50N 51°47' W 005°13'0 0.0
2018-Jan-18 20:26N 51°47' W 005°13'0 0.0
2018-Jan-18 17:17N 51°47' W 005°13'0 0.0
2018-Jan-18 16:11N 51°47' W 005°13'0 0.0
2018-Jan-18 13:43N 51°47' W 005°13'0 0.0
2018-Jan-18 13:13N 51°47' W 005°13'0 0.0
2018-Jan-18 12:55N 51°47' W 005°13'0 0.0
2018-Jan-18 12:26N 51°47' W 005°13'0 0.0
2018-Jan-18 11:56N 51°47' W 005°13'0 0.0
2018-Jan-18 11:26N 51°47' W 005°13'0 0.0
2018-Jan-18 10:57N 51°47' W 005°13'0 0.0
2018-Jan-18 10:15N 51°47' W 005°13'0 0.0
2018-Jan-18 09:57N 51°47' W 005°13'0 0.0
2018-Jan-18 09:28N 51°47' W 005°13'0 0.0
2018-Jan-18 08:40N 51°47' W 005°13'0 0.0
2018-Jan-18 08:23N 51°47' W 005°13'0 0.0
2018-Jan-18 04:43N 51°47' W 005°13'0 0.1
2018-Jan-18 04:19N 51°47' W 005°13'0 0.0
2018-Jan-18 03:32N 51°47' W 005°13'0 0.0
2018-Jan-18 03:20N 51°47' W 005°13'0 0.1
2018-Jan-18 02:50N 51°47' W 005°13'  
Track history (hours):
 
Tides and Currents Weather Stations Pressure Air Temp Water Temp Dewpoint Dewpoint Depression Visibility Wind Speed Wind Dir Waves Ship Positions

Admiral

Last reported at 2018-Jan-22 22:00 UTC. Time now 2018-Jan-22 22:30 UTC.
Position N 55°20' W 005°56'.

Length 168 m; draft 6.5 m.

Type: Ship (hazmat cat A). MMSI: 236175000.

Date/timePositionNaut miles runAvg speedWind from/ knotsBaromVisibWave heightAir tempDewpointWater temp
2018-Jan-22 22:00N 55°20' W 005°56'510.8
2018-Jan-22 21:30N 55°16' W 005°50'611.7
2018-Jan-22 21:00N 55°11' W 005°44'1613.1
2018-Jan-22 19:45N 54°58' W 005°28'314.0
2018-Jan-22 19:30N 54°55' W 005°25'713.7
2018-Jan-22 19:00N 54°49' W 005°20'714.3
2018-Jan-22 18:30N 54°43' W 005°13'714.5
2018-Jan-22 18:00N 54°36' W 005°10'714.1
2018-Jan-22 17:30N 54°29' W 005°08'713.7
2018-Jan-22 17:00N 54°22' W 005°06'713.2
2018-Jan-22 16:30N 54°15' W 005°06'14613.1
2018-Jan-22 05:22N 51°50' W 005°30'6 8.8
2018-Jan-22 04:44N 51°45' W 005°26'2 9.8
2018-Jan-22 04:31N 51°43' W 005°23'5 9.0
2018-Jan-22 04:00N 51°40' W 005°17'4 8.8
2018-Jan-22 03:30N 51°39' W 005°11'4 8.8
2018-Jan-22 03:01N 51°42' W 005°05'2 3.3
2018-Jan-22 02:29N 51°42' W 005°02'0 0.0
2018-Jan-22 01:59N 51°42' W 005°02'0 0.0
2018-Jan-22 01:30N 51°42' W 005°02'0 0.0
2018-Jan-22 01:00N 51°42' W 005°02'0 0.0
2018-Jan-22 00:30N 51°42' W 005°02'0 0.0
2018-Jan-21 23:55N 51°42' W 005°02'0 0.0
2018-Jan-21 23:25N 51°42' W 005°02'0 0.0
2018-Jan-21 22:55N 51°42' W 005°02'0 0.0
2018-Jan-21 22:26N 51°42' W 005°02'0 0.0
2018-Jan-21 21:56N 51°42' W 005°02'0 0.0
2018-Jan-21 21:26N 51°42' W 005°02'0 0.0
2018-Jan-21 20:57N 51°42' W 005°02'0 0.0
2018-Jan-21 20:27N 51°42' W 005°02'0 0.0
2018-Jan-21 19:57N 51°42' W 005°02'0 0.0
2018-Jan-21 19:28N 51°42' W 005°02'0 0.0
2018-Jan-21 18:58N 51°42' W 005°02'0 0.0
2018-Jan-21 18:28N 51°42' W 005°02'0 0.0
2018-Jan-21 17:59N 51°42' W 005°02'0 0.0
2018-Jan-21 17:29N 51°42' W 005°02'0 0.0
2018-Jan-21 16:59N 51°42' W 005°02'0 0.0
2018-Jan-21 16:30N 51°42' W 005°02'0 0.0
2018-Jan-21 16:00N 51°42' W 005°02'0 0.0
2018-Jan-21 15:30N 51°42' W 005°02'0 0.0
2018-Jan-21 14:55N 51°42' W 005°02'0 0.0
2018-Jan-21 14:25N 51°42' W 005°02'0 0.0
2018-Jan-21 13:55N 51°42' W 005°02'0 0.0
2018-Jan-21 13:26N 51°42' W 005°02'0 0.0
2018-Jan-21 12:56N 51°42' W 005°02'0 0.0
2018-Jan-21 12:26N 51°42' W 005°02'0 0.0
2018-Jan-21 11:45N 51°42' W 005°02'0 0.0
2018-Jan-21 11:27N 51°42' W 005°02'0 0.0
2018-Jan-21 10:57N 51°42' W 005°02'0 0.0
2018-Jan-21 10:28N 51°42' W 005°02'0 0.0
2018-Jan-21 09:58N 51°42' W 005°02'0 0.0
2018-Jan-21 09:28N 51°42' W 005°02'0 0.0
2018-Jan-21 08:59N 51°42' W 005°02'0 0.0
2018-Jan-21 08:29N 51°42' W 005°02'0 0.0
2018-Jan-21 07:59N 51°42' W 005°02'0 0.0
2018-Jan-21 07:30N 51°42' W 005°02'0 0.0
2018-Jan-21 07:00N 51°42' W 005°02'0 0.0
2018-Jan-21 06:30N 51°42' W 005°02'0 0.0
2018-Jan-21 05:55N 51°42' W 005°02'0 0.0
2018-Jan-21 05:25N 51°42' W 005°02'0 0.0
2018-Jan-21 04:56N 51°42' W 005°02'0 0.0
2018-Jan-21 04:26N 51°42' W 005°02'0 0.0
2018-Jan-21 03:56N 51°42' W 005°02'0 0.0
2018-Jan-21 03:27N 51°42' W 005°02'0 0.0
2018-Jan-21 02:57N 51°42' W 005°02'0 0.0
2018-Jan-21 02:27N 51°42' W 005°02'0 0.0
2018-Jan-21 01:58N 51°42' W 005°02'0 0.0
2018-Jan-21 01:28N 51°42' W 005°02'0 0.0
2018-Jan-21 00:58N 51°42' W 005°02'0 0.0
2018-Jan-21 00:29N 51°42' W 005°02'0 0.0
2018-Jan-20 23:59N 51°42' W 005°02'0 0.0
2018-Jan-20 23:29N 51°42' W 005°02'0 0.0
2018-Jan-20 23:00N 51°42' W 005°02'0 0.0
2018-Jan-20 22:30N 51°42' W 005°02'0 0.0
2018-Jan-20 22:00N 51°42' W 005°02'0 0.0
2018-Jan-20 21:30N 51°42' W 005°02'0 0.0
2018-Jan-20 20:49N 51°42' W 005°02'0 0.0
2018-Jan-20 20:25N 51°42' W 005°02'0 0.0
2018-Jan-20 19:56N 51°42' W 005°02'0 0.0
2018-Jan-20 19:26N 51°42' W 005°02'0 0.0
2018-Jan-20 18:56N 51°42' W 005°02'0 0.0
2018-Jan-20 18:27N 51°42' W 005°02'0 0.0
2018-Jan-20 17:57N 51°42' W 005°02'0 0.0
2018-Jan-20 17:27N 51°42' W 005°02'0 0.0
2018-Jan-20 16:58N 51°42' W 005°02'0 0.0
2018-Jan-20 16:28N 51°42' W 005°02'0 0.0
2018-Jan-20 15:58N 51°42' W 005°02'0 0.0
2018-Jan-20 15:29N 51°42' W 005°02'0 0.0
2018-Jan-20 14:59N 51°42' W 005°02'0 0.0
2018-Jan-20 14:29N 51°42' W 005°02'0 0.0
2018-Jan-20 14:00N 51°42' W 005°02'0 0.0
2018-Jan-20 13:30N 51°42' W 005°02'0 0.0
2018-Jan-20 13:00N 51°42' W 005°02'0 0.0
2018-Jan-20 12:31N 51°42' W 005°02'0 0.0
2018-Jan-20 11:55N 51°42' W 005°02'0 0.0
2018-Jan-20 11:25N 51°42' W 005°02'0 0.0
2018-Jan-20 10:56N 51°42' W 005°02'0 0.0
2018-Jan-20 10:26N 51°42' W 005°02'0 0.0
2018-Jan-20 09:56N 51°42' W 005°02'0 0.0
2018-Jan-20 09:27N 51°42' W 005°02'0 0.0
2018-Jan-20 08:57N 51°42' W 005°02'0 0.0
2018-Jan-20 08:27N 51°42' W 005°02'0 0.0
2018-Jan-20 07:58N 51°42' W 005°02'0 0.1
2018-Jan-20 07:30N 51°42' W 005°02'1 2.2
2018-Jan-20 07:00N 51°42' W 005°04'4 7.2
2018-Jan-20 06:30N 51°41' W 005°09'5 9.5
2018-Jan-20 06:00N 51°37' W 005°12'2 3.6
2018-Jan-20 05:30N 51°35' W 005°14'1 1.9
2018-Jan-20 05:00N 51°36' W 005°15'1 2.4
2018-Jan-20 04:30N 51°37' W 005°17'1 2.8
2018-Jan-20 03:59N 51°37' W 005°18'2 3.7
2018-Jan-20 03:30N 51°39' W 005°20'3 6.6
2018-Jan-20 03:00N 51°42' W 005°21'4 6.7
2018-Jan-20 02:28N 51°46' W 005°19'3 7.2
2018-Jan-20 02:00N 51°47' W 005°14'1 1.3
2018-Jan-20 01:30N 51°47' W 005°13'0 0.0
2018-Jan-20 00:55N 51°47' W 005°13'0 0.0
2018-Jan-19 21:40N 51°47' W 005°13'0 0.0
2018-Jan-19 15:43N 51°47' W 005°13'0 0.0
2018-Jan-19 14:32N 51°47' W 005°13'0 0.0
2018-Jan-19 14:15N 51°47' W 005°13'0 0.1
2018-Jan-19 13:57N 51°47' W 005°13'0 0.0
2018-Jan-19 13:15N 51°47' W 005°13'0 0.0
2018-Jan-19 12:34N 51°47' W 005°13'0 0.1
2018-Jan-19 12:28N 51°47' W 005°13'0 0.0
2018-Jan-19 11:58N 51°47' W 005°13'0 0.0
2018-Jan-19 11:17N 51°47' W 005°13'0 0.0
2018-Jan-19 10:53N 51°47' W 005°13'0 0.1
2018-Jan-19 10:23N 51°47' W 005°13'0 0.1
2018-Jan-19 09:59N 51°47' W 005°13'0 0.0
2018-Jan-19 07:55N 51°47' W 005°13'0 0.0
2018-Jan-19 07:25N 51°47' W 005°13'0 0.0
2018-Jan-19 06:02N 51°47' W 005°13'0 0.0
2018-Jan-19 01:59N 51°47' W 005°13'0 0.0
2018-Jan-19 01:29N 51°47' W 005°13'0 0.0
2018-Jan-19 00:36N 51°47' W 005°13'0 0.0
2018-Jan-19 00:30N 51°47' W 005°13'0 0.0
2018-Jan-19 00:00N 51°47' W 005°13'0 0.0
2018-Jan-18 23:30N 51°47' W 005°13'0 0.0
2018-Jan-18 22:55N 51°47' W 005°13'0 0.0
2018-Jan-18 22:25N 51°47' W 005°13'0 0.0
2018-Jan-18 21:55N 51°47' W 005°13'0 0.0
2018-Jan-18 21:26N 51°47' W 005°13'0 0.0
2018-Jan-18 20:50N 51°47' W 005°13'0 0.0
2018-Jan-18 20:26N 51°47' W 005°13'0 0.0
2018-Jan-18 17:17N 51°47' W 005°13'0 0.0
2018-Jan-18 16:11N 51°47' W 005°13'0 0.0
2018-Jan-18 13:43N 51°47' W 005°13'0 0.0
2018-Jan-18 13:13N 51°47' W 005°13'0 0.0
2018-Jan-18 12:55N 51°47' W 005°13'0 0.0
2018-Jan-18 12:26N 51°47' W 005°13'0 0.0
2018-Jan-18 11:56N 51°47' W 005°13'0 0.0
2018-Jan-18 11:26N 51°47' W 005°13'0 0.0
2018-Jan-18 10:57N 51°47' W 005°13'0 0.0
2018-Jan-18 10:15N 51°47' W 005°13'0 0.0
2018-Jan-18 09:57N 51°47' W 005°13'0 0.0
2018-Jan-18 09:28N 51°47' W 005°13'0 0.0
2018-Jan-18 08:40N 51°47' W 005°13'0 0.0
2018-Jan-18 08:23N 51°47' W 005°13'0 0.0
2018-Jan-18 04:43N 51°47' W 005°13'0 0.1
2018-Jan-18 04:19N 51°47' W 005°13'0 0.0
2018-Jan-18 03:32N 51°47' W 005°13'0 0.0
2018-Jan-18 03:20N 51°47' W 005°13'0 0.1
2018-Jan-18 02:50N 51°47' W 005°13'  

Dump ship's entire track history